Time,TemperatureF,DewpointF,PressureIn,WindDirection,WindDirectionDegrees,WindSpeedMPH,WindSpeedGustMPH,Humidity,HourlyPrecipIn,Conditions,Clouds,dailyrainin,SoftwareType,DateUTC
2013-03-07 00:00:00,35.8,33.2,22.74,West,260,6.9,6.9,90,0.00,RA,,0.00,WeatherDisplay:10.37,2013-03-07 05:00:00,
2013-03-07 00:05:00,35.8,33.2,22.74,West,272,5.8,5.8,90,0.00,RA,,0.00,WeatherDisplay:10.37,2013-03-07 05:05:00,
2013-03-07 00:10:00,35.9,33.3,22.74,West,279,4.0,4.0,90,0.00,CLR,,0.00,WeatherDisplay:10.37,2013-03-07 05:10:00,
2013-03-07 00:15:00,35.8,33.2,22.74,West,278,1.1,0.0,90,0.00,CLR,,0.00,WeatherDisplay:10.37,2013-03-07 05:15:00,
2013-03-07 00:20:00,35.8,33.2,22.74,WNW,283,3.5,0.0,90,0.00,CLR,,0.00,WeatherDisplay:10.37,2013-03-07 05:20:00,
2013-03-07 00:25:00,35.8,33.2,22.74,West,275,3.0,3.0,90,0.00,CLR,,0.00,WeatherDisplay:10.37,2013-03-07 05:25:00,
2013-03-07 00:30:00,35.7,33.1,22.74,West,272,4.6,4.6,90,0.00,CLR,,0.00,WeatherDisplay:10.37,2013-03-07 05:30:00,
2013-03-07 00:35:00,35.8,33.2,22.74,West,269,3.5,3.5,90,0.00,CLR,,0.00,WeatherDisplay:10.37,2013-03-07 05:35:00,
2013-03-07 00:40:00,35.7,33.1,22.74,West,280,3.5,3.5,90,0.00,CLR,,0.00,WeatherDisplay:10.37,2013-03-07 05:40:00,
2013-03-07 00:45:00,35.7,33.1,22.74,SW,225,3.5,0.0,90,0.00,CLR,,0.00,WeatherDisplay:10.37,2013-03-07 05:45:00,
2013-03-07 00:50:00,35.7,33.1,22.74,West,273,3.5,3.5,90,0.00,CLR,,0.00,WeatherDisplay:10.37,2013-03-07 05:50:00,
2013-03-07 00:55:00,35.7,33.1,22.74,West,277,5.8,5.8,90,0.00,CLR,,0.00,WeatherDisplay:10.37,2013-03-07 05:55:00,
2013-03-07 01:00:00,35.7,33.1,22.74,West,267,1.1,1.1,90,0.00,CLR,,0.00,WeatherDisplay:10.37,2013-03-07 06:00:00,
2013-03-07 01:05:00,35.7,33.1,22.74,WSW,242,6.0,6.0,90,0.00,CLR,,0.00,WeatherDisplay:10.37,2013-03-07 06:05:00,
2013-03-07 01:10:00,35.7,33.1,22.74,WNW,291,4.6,4.6,90,0.00,CLR,,0.00,WeatherDisplay:10.37,2013-03-07 06:10:00,
2013-03-07 01:15:00,35.7,33.1,22.74,West,273,9.2,9.2,90,0.00,CLR,,0.00,WeatherDisplay:10.37,2013-03-07 06:15:00,
2013-03-07 01:20:00,35.7,33.1,22.74,WNW,295,6.9,6.9,90,0.00,CLR,,0.00,WeatherDisplay:10.37,2013-03-07 06:20:00,
2013-03-07 01:25:00,35.8,33.2,22.74,WNW,295,8.1,8.1,90,0.00,CLR,,0.00,WeatherDisplay:10.37,2013-03-07 06:25:00,
2013-03-07 01:30:00,35.8,33.2,22.74,West,270,7.0,7.0,90,0.00,CLR,,0.00,WeatherDisplay:10.37,2013-03-07 06:30:00,
2013-03-07 01:35:00,35.8,33.2,22.74,West,277,9.2,9.2,90,0.00,CLR,,0.00,WeatherDisplay:10.37,2013-03-07 06:35:00,
2013-03-07 01:40:00,35.8,33.2,22.74,West,273,4.6,4.6,90,0.00,CLR,,0.00,WeatherDisplay:10.37,2013-03-07 06:40:00,
2013-03-07 01:45:00,35.8,32.9,22.74,West,275,2.0,2.0,89,0.00,CLR,,0.00,WeatherDisplay:10.37,2013-03-07 06:45:00,
2013-03-07 01:50:00,35.8,32.9,22.74,WNW,293,6.9,6.9,89,0.00,CLR,,0.00,WeatherDisplay:10.37,2013-03-07 06:50:00,
2013-03-07 01:55:00,35.7,32.8,22.74,WSW,240,0.0,0.4,89,0.00,CLR,,0.00,WeatherDisplay:10.37,2013-03-07 06:55:00,
2013-03-07 02:00:00,35.7,32.8,22.74,NW,321,5.0,5.0,89,0.00,CLR,,0.00,WeatherDisplay:10.37,2013-03-07 07:00:00,
2013-03-07 02:05:00,35.6,32.7,22.74,NW,306,0.0,0.0,89,0.00,CLR,,0.00,WeatherDisplay:10.37,2013-03-07 07:05:00,
2013-03-07 02:10:00,35.7,32.8,22.74,WNW,283,2.3,2.3,89,0.00,CLR,,0.00,WeatherDisplay:10.37,2013-03-07 07:10:00,
2013-03-07 02:15:00,35.7,32.8,22.74,West,263,5.8,5.8,89,0.00,CLR,,0.00,WeatherDisplay:10.37,2013-03-07 07:15:00,
2013-03-07 02:20:00,35.6,33.0,22.74,WNW,296,4.6,4.6,90,0.00,CLR,,0.00,WeatherDisplay:10.37,2013-03-07 07:20:00,
2013-03-07 02:25:00,35.7,32.8,22.74,West,265,5.8,5.8,89,0.00,CLR,,0.00,WeatherDisplay:10.37,2013-03-07 07:25:00,
2013-03-07 02:30:00,35.6,32.7,22.74,West,266,0.0,0.7,89,0.00,CLR,,0.00,WeatherDisplay:10.37,2013-03-07 07:30:00,
2013-03-07 02:35:00,35.6,32.7,22.74,West,276,4.0,4.0,89,0.00,CLR,,0.00,WeatherDisplay:10.37,2013-03-07 07:35:00,
2013-03-07 02:40:00,35.7,33.1,22.74,West,267,3.5,3.5,90,0.00,CLR,,0.00,WeatherDisplay:10.37,2013-03-07 07:40:00,
2013-03-07 02:46:00,35.7,33.1,22.74,West,264,3.5,3.5,90,0.01,RA,,0.01,WeatherDisplay:10.37,2013-03-07 07:46:00,
2013-03-07 02:51:00,35.7,32.8,22.74,West,267,8.1,8.1,89,0.01,RA,,0.01,WeatherDisplay:10.37,2013-03-07 07:51:00,
2013-03-07 02:56:00,35.7,33.1,22.74,West,269,8.1,8.1,90,0.01,CLR,,0.01,WeatherDisplay:10.37,2013-03-07 07:56:00,
2013-03-07 03:01:00,35.6,32.7,22.74,NW,323,8.1,8.1,89,0.01,CLR,,0.01,WeatherDisplay:10.37,2013-03-07 08:01:00,
2013-03-07 03:06:00,35.5,32.6,22.74,West,279,6.0,6.0,89,0.01,CLR,,0.01,WeatherDisplay:10.37,2013-03-07 08:06:00,
2013-03-07 03:11:00,35.6,32.7,22.74,West,271,3.5,3.5,89,0.01,CLR,,0.01,WeatherDisplay:10.37,2013-03-07 08:11:00,
2013-03-07 03:16:00,35.5,32.6,22.74,West,281,9.2,9.2,89,0.01,CLR,,0.01,WeatherDisplay:10.37,2013-03-07 08:16:00,
2013-03-07 03:21:00,35.5,32.6,22.74,WNW,288,8.1,8.1,89,0.01,CLR,,0.01,WeatherDisplay:10.37,2013-03-07 08:21:00,
2013-03-07 03:26:00,35.5,32.6,22.74,West,264,9.2,9.2,89,0.01,CLR,,0.01,WeatherDisplay:10.37,2013-03-07 08:26:00,
2013-03-07 03:31:00,35.5,32.6,22.74,WSW,253,5.8,5.8,89,0.01,CLR,,0.01,WeatherDisplay:10.37,2013-03-07 08:31:00,
2013-03-07 03:36:00,35.5,32.6,22.74,West,263,8.1,8.1,89,0.01,CLR,,0.01,WeatherDisplay:10.37,2013-03-07 08:36:00,
2013-03-07 03:41:00,35.5,32.6,22.74,SSW,202,4.0,4.0,89,0.01,CLR,,0.01,WeatherDisplay:10.37,2013-03-07 08:41:00,
2013-03-07 03:46:00,35.5,32.6,22.74,WSW,256,6.9,6.9,89,0.00,CLR,,0.01,WeatherDisplay:10.37,2013-03-07 08:46:00,
2013-03-07 03:51:00,35.4,32.5,22.74,West,275,3.5,0.0,89,0.00,CLR,,0.01,WeatherDisplay:10.37,2013-03-07 08:51:00,
2013-03-07 03:56:00,35.4,32.5,22.74,West,259,4.6,4.6,89,0.00,CLR,,0.01,WeatherDisplay:10.37,2013-03-07 08:56:00,
2013-03-07 04:01:00,35.4,32.5,22.74,NW,318,4.6,4.6,89,0.00,CLR,,0.01,WeatherDisplay:10.37,2013-03-07 09:01:00,
2013-03-07 04:06:00,35.3,32.4,22.74,West,279,0.0,0.0,89,0.00,CLR,,0.01,WeatherDisplay:10.37,2013-03-07 09:06:00,
2013-03-07 04:11:00,35.3,32.4,22.74,West,261,3.5,3.5,89,0.00,CLR,,0.01,WeatherDisplay:10.37,2013-03-07 09:11:00,
2013-03-07 04:16:00,35.3,32.4,22.74,West,263,3.5,3.5,89,0.00,CLR,,0.01,WeatherDisplay:10.37,2013-03-07 09:16:00,
2013-03-07 04:21:00,35.3,32.4,22.74,West,264,4.6,4.6,89,0.00,CLR,,0.01,WeatherDisplay:10.37,2013-03-07 09:21:00,
2013-03-07 04:26:00,35.3,32.4,22.74,WNW,286,5.0,5.0,89,0.00,CLR,,0.01,WeatherDisplay:10.37,2013-03-07 09:26:00,
2013-03-07 04:32:00,35.3,32.4,22.74,WNW,286,0.0,0.8,89,0.00,CLR,,0.01,WeatherDisplay:10.37,2013-03-07 09:32:00,
2013-03-07 04:37:00,35.3,32.4,22.74,West,264,0.0,0.0,89,0.00,CLR,,0.01,WeatherDisplay:10.37,2013-03-07 09:37:00,
2013-03-07 04:42:00,35.3,32.7,22.74,West,265,3.5,3.5,90,0.00,CLR,,0.01,WeatherDisplay:10.37,2013-03-07 09:42:00,
2013-03-07 04:47:00,35.3,32.4,22.74,WNW,292,3.5,3.5,89,0.00,CLR,,0.01,WeatherDisplay:10.37,2013-03-07 09:47:00,
2013-03-07 04:52:00,35.3,32.4,22.74,West,267,9.2,9.2,89,0.00,CLR,,0.01,WeatherDisplay:10.37,2013-03-07 09:52:00,
2013-03-07 04:57:00,35.3,32.4,22.74,WNW,290,3.5,3.5,89,0.00,CLR,,0.01,WeatherDisplay:10.37,2013-03-07 09:57:00,
2013-03-07 05:02:00,35.3,32.4,22.74,WNW,292,3.5,3.5,89,0.00,CLR,,0.01,WeatherDisplay:10.37,2013-03-07 10:02:00,
2013-03-07 05:07:00,35.3,32.4,22.74,WNW,300,4.6,4.6,89,0.00,CLR,,0.01,WeatherDisplay:10.37,2013-03-07 10:07:00,
2013-03-07 05:12:00,35.2,32.3,22.74,West,281,3.5,3.5,89,0.00,CLR,,0.01,WeatherDisplay:10.37,2013-03-07 10:12:00,
2013-03-07 05:17:00,35.2,32.3,22.74,West,279,4.6,4.6,89,0.00,CLR,,0.01,WeatherDisplay:10.37,2013-03-07 10:17:00,
2013-03-07 05:22:00,35.2,32.3,22.74,West,276,3.5,3.5,89,0.00,CLR,,0.01,WeatherDisplay:10.37,2013-03-07 10:22:00,
2013-03-07 05:27:00,35.1,32.2,22.74,West,277,5.8,5.8,89,0.00,CLR,,0.01,WeatherDisplay:10.37,2013-03-07 10:27:00,
2013-03-07 05:32:00,35.1,32.2,22.74,WNW,303,0.0,0.0,89,0.00,CLR,,0.01,WeatherDisplay:10.37,2013-03-07 10:32:00,
2013-03-07 05:37:00,35.0,32.1,22.74,West,269,5.0,5.0,89,0.00,CLR,,0.01,WeatherDisplay:10.37,2013-03-07 10:37:00,
2013-03-07 05:42:00,35.0,32.1,22.74,WNW,286,3.5,3.5,89,0.00,CLR,,0.01,WeatherDisplay:10.37,2013-03-07 10:42:00,
2013-03-07 05:47:00,35.0,32.1,22.74,West,262,9.2,9.2,89,0.00,CLR,,0.01,WeatherDisplay:10.37,2013-03-07 10:47:00,
2013-03-07 05:52:00,34.9,32.0,22.74,West,281,3.5,3.5,89,0.00,CLR,,0.01,WeatherDisplay:10.37,2013-03-07 10:52:00,
2013-03-07 05:57:00,34.9,32.0,22.74,WSW,254,5.0,5.0,89,0.00,CLR,,0.01,WeatherDisplay:10.37,2013-03-07 10:57:00,
2013-03-07 06:02:00,34.9,32.0,22.74,NW,306,5.8,0.0,89,0.00,CLR,,0.01,WeatherDisplay:10.37,2013-03-07 11:02:00,
2013-03-07 06:07:00,34.8,31.9,22.74,WNW,303,3.5,0.0,89,0.00,CLR,,0.01,WeatherDisplay:10.37,2013-03-07 11:07:00,
2013-03-07 06:12:00,34.8,31.9,22.74,WNW,302,0.0,0.0,89,0.00,CLR,,0.01,WeatherDisplay:10.37,2013-03-07 11:12:00,
2013-03-07 06:17:00,34.7,31.8,22.74,West,280,3.5,3.5,89,0.00,CLR,,0.01,WeatherDisplay:10.37,2013-03-07 11:17:00,
2013-03-07 06:22:00,34.7,31.8,22.74,West,280,0.0,0.0,89,0.00,CLR,,0.01,WeatherDisplay:10.37,2013-03-07 11:22:00,
2013-03-07 06:27:00,34.7,31.8,22.74,West,281,3.5,3.5,89,0.00,CLR,,0.01,WeatherDisplay:10.37,2013-03-07 11:27:00,
2013-03-07 06:32:00,34.7,31.8,22.74,West,267,4.0,4.0,89,0.00,CLR,,0.01,WeatherDisplay:10.37,2013-03-07 11:32:00,
2013-03-07 06:37:00,34.6,31.7,22.74,West,268,4.6,4.6,89,0.00,CLR,,0.01,WeatherDisplay:10.37,2013-03-07 11:37:00,
2013-03-07 06:42:00,34.5,31.6,22.74,West,269,1.1,0.0,89,0.00,CLR,,0.01,WeatherDisplay:10.37,2013-03-07 11:42:00,
2013-03-07 06:47:00,34.5,31.6,22.74,WNW,284,4.6,4.6,89,0.00,CLR,,0.01,WeatherDisplay:10.37,2013-03-07 11:47:00,
2013-03-07 06:53:00,34.4,31.5,22.74,NW,310,10.4,10.4,89,0.00,CLR,,0.01,WeatherDisplay:10.37,2013-03-07 11:53:00,
2013-03-07 06:58:00,34.4,31.2,22.74,West,274,5.0,5.0,88,0.00,CLR,,0.01,WeatherDisplay:10.37,2013-03-07 11:58:00,
2013-03-07 07:03:00,34.4,31.2,22.74,SSW,210,4.6,4.6,88,0.00,CLR,,0.01,WeatherDisplay:10.37,2013-03-07 12:03:00,
2013-03-07 07:08:00,34.4,31.2,22.74,West,277,9.2,9.2,88,0.00,CLR,,0.01,WeatherDisplay:10.37,2013-03-07 12:08:00,
2013-03-07 07:13:00,34.4,30.9,22.74,WSW,247,8.1,8.1,87,0.00,CLR,,0.01,WeatherDisplay:10.37,2013-03-07 12:13:00,
2013-03-07 07:18:00,34.4,30.9,22.74,West,279,10.4,10.4,87,0.00,CLR,,0.01,WeatherDisplay:10.37,2013-03-07 12:18:00,
2013-03-07 07:23:00,34.4,30.9,22.74,West,271,9.2,9.2,87,0.00,CLR,,0.01,WeatherDisplay:10.37,2013-03-07 12:23:00,
2013-03-07 07:28:00,34.4,30.9,22.74,WNW,292,2.0,2.0,87,0.00,CLR,,0.01,WeatherDisplay:10.37,2013-03-07 12:28:00,
2013-03-07 07:33:00,34.4,30.9,22.74,West,274,8.1,8.1,87,0.00,CLR,,0.01,WeatherDisplay:10.37,2013-03-07 12:33:00,
2013-03-07 07:38:00,34.4,30.9,22.74,WNW,290,8.1,8.1,87,0.00,CLR,,0.01,WeatherDisplay:10.37,2013-03-07 12:38:00,
2013-03-07 07:43:00,34.4,30.9,22.74,WNW,284,9.2,9.2,87,0.00,CLR,,0.01,WeatherDisplay:10.37,2013-03-07 12:43:00,
2013-03-07 07:49:00,34.4,30.9,22.74,NW,309,4.6,4.6,87,0.00,CLR,,0.01,WeatherDisplay:10.37,2013-03-07 12:49:00,
2013-03-07 07:54:00,34.4,30.9,22.74,West,263,6.9,6.9,87,0.00,CLR,,0.01,WeatherDisplay:10.37,2013-03-07 12:54:00,
2013-03-07 07:59:00,34.4,30.9,22.74,WNW,303,11.5,11.5,87,0.00,CLR,,0.01,WeatherDisplay:10.37,2013-03-07 12:59:00,
2013-03-07 08:04:00,34.4,30.9,22.74,West,272,8.1,8.1,87,0.00,CLR,,0.01,WeatherDisplay:10.37,2013-03-07 13:04:00,
2013-03-07 08:09:00,34.5,31.0,22.74,West,270,7.0,7.0,87,0.00,CLR,,0.01,WeatherDisplay:10.37,2013-03-07 13:09:00,
2013-03-07 08:14:00,34.6,31.1,22.74,West,265,11.5,11.5,87,0.00,CLR,,0.01,WeatherDisplay:10.37,2013-03-07 13:14:00,
2013-03-07 08:19:00,34.6,31.1,22.74,WNW,292,3.5,3.5,87,0.00,CLR,,0.01,WeatherDisplay:10.37,2013-03-07 13:19:00,
2013-03-07 08:24:00,34.6,31.1,22.74,West,263,3.5,0.0,87,0.00,CLR,,0.01,WeatherDisplay:10.37,2013-03-07 13:24:00,
2013-03-07 08:29:00,34.6,31.1,22.74,WNW,296,6.9,6.9,87,0.00,CLR,,0.01,WeatherDisplay:10.37,2013-03-07 13:29:00,
2013-03-07 08:35:00,34.6,31.1,22.74,WNW,287,6.9,6.9,87,0.00,CLR,,0.01,WeatherDisplay:10.37,2013-03-07 13:35:00,
2013-03-07 08:40:00,34.7,31.2,22.74,WSW,245,6.9,6.9,87,0.00,CLR,,0.01,WeatherDisplay:10.37,2013-03-07 13:40:00,
2013-03-07 08:45:00,34.8,31.3,22.74,WSW,250,11.5,11.5,87,0.00,CLR,,0.01,WeatherDisplay:10.37,2013-03-07 13:45:00,
2013-03-07 08:50:00,34.8,31.0,22.74,WSW,242,11.5,11.5,86,0.00,CLR,,0.01,WeatherDisplay:10.37,2013-03-07 13:50:00,
2013-03-07 08:55:00,34.8,31.0,22.74,WNW,292,11.5,11.5,86,0.00,CLR,,0.01,WeatherDisplay:10.37,2013-03-07 13:55:00,
2013-03-07 09:00:00,34.8,31.0,22.74,West,281,2.3,2.3,86,0.00,CLR,,0.01,WeatherDisplay:10.37,2013-03-07 14:00:00,
2013-03-07 09:05:00,34.8,31.0,22.74,WSW,252,9.2,9.2,86,0.00,CLR,,0.01,WeatherDisplay:10.37,2013-03-07 14:05:00,
2013-03-07 09:10:00,35.0,30.9,22.74,West,267,10.4,10.4,85,0.00,CLR,,0.01,WeatherDisplay:10.37,2013-03-07 14:10:00,
2013-03-07 09:15:00,35.1,31.0,22.74,North,360,5.8,5.8,85,0.00,CLR,,0.01,WeatherDisplay:10.37,2013-03-07 14:15:00,
2013-03-07 09:20:00,35.2,31.1,22.74,WNW,289,3.5,3.5,85,0.00,CLR,,0.01,WeatherDisplay:10.37,2013-03-07 14:20:00,
2013-03-07 09:25:00,35.2,31.1,22.74,SW,219,3.5,3.5,85,0.00,CLR,,0.01,WeatherDisplay:10.37,2013-03-07 14:25:00,
2013-03-07 09:30:00,35.3,31.2,22.74,West,279,10.4,10.4,85,0.00,CLR,,0.01,WeatherDisplay:10.37,2013-03-07 14:30:00,
2013-03-07 09:35:00,35.5,31.4,22.74,WNW,284,9.2,9.2,85,0.00,CLR,,0.01,WeatherDisplay:10.37,2013-03-07 14:35:00,
2013-03-07 09:41:00,35.6,31.5,22.74,NNW,331,6.9,6.9,85,0.00,CLR,,0.01,WeatherDisplay:10.37,2013-03-07 14:41:00,
2013-03-07 09:46:00,35.8,31.7,22.74,West,266,3.0,0.0,85,0.00,CLR,,0.01,WeatherDisplay:10.37,2013-03-07 14:46:00,
2013-03-07 09:51:00,35.9,31.5,31.40,SW,233,8.1,8.1,84,0.00,CLR,,0.01,WeatherDisplay:10.37,2013-03-07 14:51:00,
2013-03-07 09:56:00,36.1,31.7,22.74,WNW,300,3.5,3.5,84,0.00,CLR,,0.01,WeatherDisplay:10.37,2013-03-07 14:56:00,
2013-03-07 10:01:00,36.3,31.9,22.74,NW,308,6.0,6.0,84,0.00,CLR,,0.01,WeatherDisplay:10.37,2013-03-07 15:01:00,
2013-03-07 10:06:00,36.7,32.0,22.74,West,261,8.1,8.1,83,0.00,CLR,,0.01,WeatherDisplay:10.37,2013-03-07 15:06:00,
2013-03-07 10:11:00,37.0,32.0,22.74,WNW,291,1.1,1.1,82,0.00,CLR,,0.01,WeatherDisplay:10.37,2013-03-07 15:11:00,
2013-03-07 10:16:00,37.4,32.4,22.74,WNW,287,3.5,3.5,82,0.00,CLR,,0.01,WeatherDisplay:10.37,2013-03-07 15:16:00,
2013-03-07 10:21:00,37.6,32.3,22.74,WNW,283,3.5,3.5,81,0.00,CLR,,0.01,WeatherDisplay:10.37,2013-03-07 15:21:00,
2013-03-07 10:27:00,37.7,32.1,22.74,North,360,0.0,0.0,80,0.00,CLR,,0.01,WeatherDisplay:10.37,2013-03-07 15:27:00,
2013-03-07 10:32:00,37.8,32.2,22.74,WNW,303,0.0,0.0,80,0.00,CLR,,0.01,WeatherDisplay:10.37,2013-03-07 15:32:00,
2013-03-07 10:37:00,38.0,32.4,22.74,NW,311,2.3,2.3,80,0.00,CLR,,0.01,WeatherDisplay:10.37,2013-03-07 15:37:00,
2013-03-07 10:42:00,38.3,32.7,22.74,WNW,284,4.6,4.6,80,0.00,CLR,,0.01,WeatherDisplay:10.37,2013-03-07 15:42:00,
2013-03-07 10:47:00,38.5,32.6,22.74,West,271,5.8,5.8,79,0.00,CLR,,0.01,WeatherDisplay:10.37,2013-03-07 15:47:00,
2013-03-07 10:52:00,38.9,32.9,22.74,West,281,10.4,10.4,79,0.00,CLR,,0.01,WeatherDisplay:10.37,2013-03-07 15:52:00,
2013-03-07 10:57:00,39.0,32.7,22.74,West,277,11.5,11.5,78,0.00,CLR,,0.01,WeatherDisplay:10.37,2013-03-07 15:57:00,
2013-03-07 11:02:00,39.0,32.7,22.74,West,267,11.0,11.0,78,0.00,CLR,,0.01,WeatherDisplay:10.37,2013-03-07 16:02:00,
2013-03-07 11:07:00,39.3,33.0,22.74,WNW,290,5.8,5.8,78,0.00,CLR,,0.01,WeatherDisplay:10.37,2013-03-07 16:07:00,
2013-03-07 11:12:00,39.4,32.8,22.74,NW,305,6.9,6.9,77,0.00,CLR,,0.01,WeatherDisplay:10.37,2013-03-07 16:12:00,
2013-03-07 11:17:00,39.7,33.4,22.74,WSW,245,6.9,6.9,78,0.00,CLR,,0.01,WeatherDisplay:10.37,2013-03-07 16:17:00,
2013-03-07 11:22:00,39.9,32.9,22.74,WNW,282,2.0,2.0,76,0.00,CLR,,0.01,WeatherDisplay:10.37,2013-03-07 16:22:00,
2013-03-07 11:27:00,40.2,33.2,22.74,SW,215,10.4,10.4,76,0.00,CLR,,0.01,WeatherDisplay:10.37,2013-03-07 16:27:00,
2013-03-07 11:32:00,40.6,33.6,22.74,WNW,297,9.2,9.2,76,0.00,CLR,,0.01,WeatherDisplay:10.37,2013-03-07 16:32:00,
2013-03-07 11:37:00,40.5,33.2,22.74,WNW,290,10.4,10.4,75,0.00,CLR,,0.01,WeatherDisplay:10.37,2013-03-07 16:37:00,
2013-03-07 11:42:00,40.4,33.1,22.74,NE,36,0.0,0.0,75,0.00,CLR,,0.01,WeatherDisplay:10.37,2013-03-07 16:42:00,
2013-03-07 11:47:00,40.4,32.8,22.74,North,5,5.8,5.8,74,0.00,CLR,,0.01,WeatherDisplay:10.37,2013-03-07 16:47:00,
2013-03-07 11:52:00,40.5,32.9,22.74,West,273,5.8,5.8,74,0.00,CLR,,0.01,WeatherDisplay:10.37,2013-03-07 16:52:00,
2013-03-07 11:58:00,40.8,32.8,22.74,SE,125,0.0,0.0,73,0.00,CLR,,0.01,WeatherDisplay:10.37,2013-03-07 16:58:00,
2013-03-07 12:03:00,41.0,33.3,22.74,West,267,3.5,3.5,74,0.00,CLR,,0.01,WeatherDisplay:10.37,2013-03-07 17:03:00,
2013-03-07 12:08:00,40.8,32.5,22.74,NW,317,6.9,0.0,72,0.00,CLR,,0.01,WeatherDisplay:10.37,2013-03-07 17:08:00,
2013-03-07 12:13:00,40.6,33.0,22.74,SSW,213,3.5,0.0,74,0.00,CLR,,0.01,WeatherDisplay:10.37,2013-03-07 17:13:00,
2013-03-07 12:18:00,40.8,33.2,22.74,WNW,293,3.5,3.5,74,0.00,CLR,,0.01,WeatherDisplay:10.37,2013-03-07 17:18:00,
2013-03-07 12:23:00,40.8,32.5,22.74,WNW,289,5.8,0.0,72,0.00,CLR,,0.01,WeatherDisplay:10.37,2013-03-07 17:23:00,
2013-03-07 12:28:00,40.9,32.9,22.74,WNW,299,3.5,0.0,73,0.00,CLR,,0.01,WeatherDisplay:10.37,2013-03-07 17:28:00,
2013-03-07 12:33:00,41.1,32.4,22.74,West,259,5.8,5.8,71,0.00,CLR,,0.01,WeatherDisplay:10.37,2013-03-07 17:33:00,
2013-03-07 12:38:00,41.1,32.8,22.74,SW,234,3.5,0.0,72,0.00,CLR,,0.01,WeatherDisplay:10.37,2013-03-07 17:38:00,
2013-03-07 12:43:00,41.5,32.8,22.74,West,261,10.4,10.4,71,0.00,CLR,,0.01,WeatherDisplay:10.37,2013-03-07 17:43:00,
2013-03-07 12:48:00,41.5,32.8,22.74,WNW,283,0.0,0.0,71,0.00,CLR,,0.01,WeatherDisplay:10.37,2013-03-07 17:48:00,
2013-03-07 12:54:00,41.4,32.3,22.74,WNW,302,0.0,0.0,70,0.00,CLR,,0.01,WeatherDisplay:10.37,2013-03-07 17:54:00,
2013-03-07 12:59:00,41.5,32.4,22.74,WNW,291,4.6,4.6,70,0.00,CLR,,0.01,WeatherDisplay:10.37,2013-03-07 17:59:00,
2013-03-07 13:04:00,41.4,32.3,22.74,WNW,297,3.5,3.5,70,0.00,CLR,,0.01,WeatherDisplay:10.37,2013-03-07 18:04:00,
2013-03-07 13:09:00,41.6,32.5,22.74,West,261,0.0,0.0,70,0.00,CLR,,0.01,WeatherDisplay:10.37,2013-03-07 18:09:00,
2013-03-07 13:14:00,42.0,32.9,22.74,West,270,3.5,3.5,70,0.00,CLR,,0.01,WeatherDisplay:10.37,2013-03-07 18:14:00,
2013-03-07 13:19:00,42.1,32.3,22.74,SW,214,0.0,0.0,68,0.00,CLR,,0.01,WeatherDisplay:10.37,2013-03-07 18:19:00,
2013-03-07 13:24:00,42.4,33.3,22.74,WNW,287,4.6,4.6,70,0.00,CLR,,0.01,WeatherDisplay:10.37,2013-03-07 18:24:00,
2013-03-07 13:29:00,41.9,32.5,22.74,West,271,13.8,13.8,69,0.00,CLR,,0.01,WeatherDisplay:10.37,2013-03-07 18:29:00,
2013-03-07 13:34:00,42.2,32.8,22.74,WNW,302,10.4,10.4,69,0.00,CLR,,0.01,WeatherDisplay:10.37,2013-03-07 18:34:00,
2013-03-07 13:39:00,42.8,33.7,22.74,NW,304,3.5,3.5,70,0.00,CLR,,0.01,WeatherDisplay:10.37,2013-03-07 18:39:00,
2013-03-07 13:44:00,43.3,33.1,22.74,WSW,253,13.8,13.8,67,0.00,CLR,,0.01,WeatherDisplay:10.37,2013-03-07 18:44:00,
2013-03-07 13:49:00,43.2,33.3,22.74,West,262,6.0,6.0,68,0.00,CLR,,0.01,WeatherDisplay:10.37,2013-03-07 18:49:00,
2013-03-07 13:55:00,43.0,32.4,22.74,NE,45,3.5,3.5,66,0.00,CLR,,0.01,WeatherDisplay:10.37,2013-03-07 18:55:00,
2013-03-07 14:00:00,42.3,32.5,22.74,NW,309,3.5,3.5,68,0.00,CLR,,0.01,WeatherDisplay:10.37,2013-03-07 19:00:00,
2013-03-07 14:05:00,42.3,32.5,22.74,WNW,296,2.3,2.3,68,0.00,CLR,,0.01,WeatherDisplay:10.37,2013-03-07 19:05:00,
2013-03-07 14:10:00,43.2,33.7,22.74,West,273,5.8,5.8,69,0.00,CLR,,0.01,WeatherDisplay:10.37,2013-03-07 19:10:00,
2013-03-07 14:15:00,44.0,33.4,22.74,West,269,10.4,10.4,66,0.00,CLR,,0.01,WeatherDisplay:10.37,2013-03-07 19:15:00,
2013-03-07 14:20:00,44.1,33.1,22.74,WNW,288,8.1,8.1,65,0.00,CLR,,0.01,WeatherDisplay:10.37,2013-03-07 19:20:00,
2013-03-07 14:25:00,43.5,32.5,22.74,NNW,336,9.2,9.2,65,0.00,CLR,,0.01,WeatherDisplay:10.37,2013-03-07 19:25:00,
2013-03-07 14:30:00,42.7,32.1,22.74,WNW,288,3.5,3.5,66,0.00,CLR,,0.01,WeatherDisplay:10.37,2013-03-07 19:30:00,
2013-03-07 14:35:00,42.4,32.2,22.74,WNW,295,1.0,0.0,67,0.00,CLR,,0.01,WeatherDisplay:10.37,2013-03-07 19:35:00,
2013-03-07 14:40:00,42.0,31.8,22.74,NE,53,0.0,0.0,67,0.00,CLR,,0.01,WeatherDisplay:10.37,2013-03-07 19:40:00,
2013-03-07 14:45:00,41.6,32.2,22.74,WNW,286,4.0,4.0,69,0.00,CLR,,0.01,WeatherDisplay:10.37,2013-03-07 19:45:00,
2013-03-07 14:50:00,41.1,31.7,22.74,WNW,288,0.0,0.2,69,0.00,CLR,,0.01,WeatherDisplay:10.37,2013-03-07 19:50:00,
2013-03-07 14:55:00,40.7,32.0,22.74,WNW,282,3.5,3.5,71,0.00,CLR,,0.01,WeatherDisplay:10.37,2013-03-07 19:55:00,
2013-03-07 15:01:00,40.4,32.1,22.74,West,272,3.5,3.5,72,0.00,CLR,,0.01,WeatherDisplay:10.37,2013-03-07 20:01:00,
2013-03-07 15:06:00,40.3,32.0,22.74,NW,324,0.0,0.0,72,0.00,CLR,,0.01,WeatherDisplay:10.37,2013-03-07 20:06:00,
2013-03-07 15:11:00,40.1,32.1,22.74,NW,313,0.0,0.0,73,0.00,CLR,,0.01,WeatherDisplay:10.37,2013-03-07 20:11:00,
2013-03-07 15:16:00,39.9,31.6,22.74,NW,312,0.0,0.0,72,0.00,CLR,,0.01,WeatherDisplay:10.37,2013-03-07 20:16:00,
2013-03-07 15:21:00,39.7,32.4,22.74,NW,306,0.0,0.0,75,0.00,CLR,,0.01,WeatherDisplay:10.37,2013-03-07 20:21:00,
2013-03-07 15:26:00,39.5,32.2,22.74,NNW,329,0.0,0.0,75,0.00,CLR,,0.01,WeatherDisplay:10.37,2013-03-07 20:26:00,
2013-03-07 15:31:00,39.4,32.8,22.74,NNW,327,1.1,0.0,77,0.00,CLR,,0.01,WeatherDisplay:10.37,2013-03-07 20:31:00,
2013-03-07 15:36:00,39.2,32.6,22.74,West,271,1.1,0.0,77,0.00,CLR,,0.01,WeatherDisplay:10.37,2013-03-07 20:36:00,
2013-03-07 15:41:00,39.2,33.2,22.74,SE,142,0.0,0.0,79,0.00,CLR,,0.01,WeatherDisplay:10.37,2013-03-07 20:41:00,
2013-03-07 15:46:00,39.6,33.9,22.74,WNW,292,1.0,1.0,80,0.00,CLR,,0.01,WeatherDisplay:10.37,2013-03-07 20:46:00,
2013-03-07 15:51:00,39.9,33.6,22.74,WNW,291,0.0,0.0,78,0.00,CLR,,0.01,WeatherDisplay:10.37,2013-03-07 20:51:00,
2013-03-07 15:56:00,40.1,33.8,22.74,WNW,292,0.0,0.0,78,0.00,CLR,,0.01,WeatherDisplay:10.37,2013-03-07 20:56:00,
2013-03-07 16:01:00,40.5,33.2,22.74,West,264,3.5,3.5,75,0.00,CLR,,0.01,WeatherDisplay:10.37,2013-03-07 21:01:00,
2013-03-07 16:06:00,41.0,33.7,22.74,WNW,303,6.0,6.0,75,0.00,CLR,,0.01,WeatherDisplay:10.37,2013-03-07 21:06:00,
2013-03-07 16:11:00,41.5,33.8,22.74,WSW,242,4.0,4.0,74,0.00,CLR,,0.01,WeatherDisplay:10.37,2013-03-07 21:11:00,
2013-03-07 16:16:00,42.4,33.3,22.74,West,280,3.5,3.5,70,0.00,CLR,,0.01,WeatherDisplay:10.37,2013-03-07 21:16:00,
2013-03-07 16:21:00,42.9,33.4,22.74,NW,318,0.0,0.2,69,0.00,CLR,,0.01,WeatherDisplay:10.37,2013-03-07 21:21:00,
2013-03-07 16:26:00,42.7,32.5,22.74,NW,322,0.0,0.0,67,0.00,CLR,,0.01,WeatherDisplay:10.37,2013-03-07 21:26:00,
2013-03-07 16:31:00,42.8,32.6,22.74,WNW,294,3.5,3.5,67,0.00,CLR,,0.01,WeatherDisplay:10.37,2013-03-07 21:31:00,
2013-03-07 16:36:00,43.0,32.4,22.74,West,273,3.0,0.0,66,0.00,CLR,,0.01,WeatherDisplay:10.37,2013-03-07 21:36:00,
2013-03-07 16:42:00,43.2,31.4,22.74,WNW,286,13.8,13.8,63,0.00,CLR,,0.01,WeatherDisplay:10.37,2013-03-07 21:42:00,
2013-03-07 16:47:00,42.7,31.0,22.74,West,277,0.0,0.0,63,0.00,CLR,,0.01,WeatherDisplay:10.37,2013-03-07 21:47:00,
2013-03-07 16:52:00,42.0,29.9,22.74,WNW,292,2.3,2.3,62,0.00,CLR,,0.01,WeatherDisplay:10.37,2013-03-07 21:52:00,
2013-03-07 16:57:00,41.6,30.3,22.74,WNW,293,0.0,0.0,64,0.00,CLR,,0.01,WeatherDisplay:10.37,2013-03-07 21:57:00,
2013-03-07 17:02:00,41.1,29.8,22.74,NNW,338,4.6,4.6,64,0.00,CLR,,0.01,WeatherDisplay:10.37,2013-03-07 22:02:00,
2013-03-07 17:07:00,41.0,30.1,22.74,NNW,337,0.0,0.0,65,0.00,CLR,,0.01,WeatherDisplay:10.37,2013-03-07 22:07:00,
2013-03-07 17:12:00,40.7,29.5,22.74,WNW,288,0.0,0.0,64,0.00,CLR,,0.01,WeatherDisplay:10.37,2013-03-07 22:12:00,
2013-03-07 17:17:00,40.5,29.7,22.74,NNW,340,3.5,3.5,65,0.00,CLR,,0.01,WeatherDisplay:10.37,2013-03-07 22:17:00,
2013-03-07 17:22:00,40.2,29.4,22.74,NW,309,0.0,0.0,65,0.00,CLR,,0.01,WeatherDisplay:10.37,2013-03-07 22:22:00,
2013-03-07 17:27:00,39.9,29.1,22.74,NW,307,3.5,3.5,65,0.00,CLR,,0.01,WeatherDisplay:10.37,2013-03-07 22:27:00,
2013-03-07 17:32:00,39.7,29.3,22.74,NW,307,0.0,0.0,66,0.00,CLR,,0.01,WeatherDisplay:10.37,2013-03-07 22:32:00,
2013-03-07 17:37:00,39.6,29.5,22.74,NW,307,1.1,0.0,67,0.00,CLR,,0.01,WeatherDisplay:10.37,2013-03-07 22:37:00,
2013-03-07 17:42:00,39.4,29.7,22.74,NW,307,0.0,0.0,68,0.00,CLR,,0.01,WeatherDisplay:10.37,2013-03-07 22:42:00,
2013-03-07 17:47:00,39.4,30.1,22.74,NW,307,0.0,0.0,69,0.00,CLR,,0.01,WeatherDisplay:10.37,2013-03-07 22:47:00,
2013-03-07 17:52:00,39.5,30.2,22.74,NW,307,0.0,0.0,69,0.00,CLR,,0.01,WeatherDisplay:10.37,2013-03-07 22:52:00,
2013-03-07 17:57:00,39.5,30.2,22.74,NW,307,0.0,0.0,69,0.00,CLR,,0.01,WeatherDisplay:10.37,2013-03-07 22:57:00,
2013-03-07 18:02:00,39.5,30.2,22.74,NW,307,0.0,0.0,69,0.00,CLR,,0.01,WeatherDisplay:10.37,2013-03-07 23:02:00,
2013-03-07 18:07:00,39.5,30.2,22.74,West,275,3.0,3.0,69,0.00,CLR,,0.01,WeatherDisplay:10.37,2013-03-07 23:07:00,
2013-03-07 18:12:00,39.6,30.6,22.74,West,275,3.5,3.5,70,0.00,CLR,,0.01,WeatherDisplay:10.37,2013-03-07 23:12:00,
2013-03-07 18:17:00,39.5,30.2,22.74,West,275,0.0,0.0,69,0.00,CLR,,0.01,WeatherDisplay:10.37,2013-03-07 23:17:00,
2013-03-07 18:22:00,39.5,30.5,22.74,West,275,0.0,0.0,70,0.00,CLR,,0.01,WeatherDisplay:10.37,2013-03-07 23:22:00,
2013-03-07 18:27:00,39.4,30.4,22.74,West,275,0.0,0.0,70,0.00,CLR,,0.01,WeatherDisplay:10.37,2013-03-07 23:27:00,
2013-03-07 18:33:00,39.3,30.7,22.74,West,275,2.0,2.0,71,0.00,CLR,,0.01,WeatherDisplay:10.37,2013-03-07 23:33:00,
2013-03-07 18:38:00,39.2,30.2,22.74,West,275,0.0,0.0,70,0.00,CLR,,0.01,WeatherDisplay:10.37,2013-03-07 23:38:00,
2013-03-07 18:43:00,39.1,30.1,22.74,West,275,2.3,2.3,70,0.00,CLR,,0.01,WeatherDisplay:10.37,2013-03-07 23:43:00,
2013-03-07 18:48:00,39.1,30.5,22.74,West,275,3.5,3.5,71,0.00,CLR,,0.01,WeatherDisplay:10.37,2013-03-07 23:48:00,
2013-03-07 18:53:00,39.1,30.5,22.74,West,275,0.0,0.0,71,0.00,CLR,,0.01,WeatherDisplay:10.37,2013-03-07 23:53:00,
2013-03-07 18:58:00,39.0,30.4,22.74,West,275,2.0,2.0,71,0.00,CLR,,0.01,WeatherDisplay:10.37,2013-03-07 23:58:00,
2013-03-07 19:03:00,38.9,30.3,22.74,WNW,290,0.0,0.0,71,0.00,CLR,,0.01,WeatherDisplay:10.37,2013-03-08 00:03:00,
2013-03-07 19:08:00,38.8,29.8,22.74,WNW,290,0.0,0.0,70,0.00,CLR,,0.01,WeatherDisplay:10.37,2013-03-08 00:08:00,
2013-03-07 19:13:00,38.8,30.2,22.74,NW,309,2.3,2.3,71,0.00,CLR,,0.01,WeatherDisplay:10.37,2013-03-08 00:13:00,
2013-03-07 19:18:00,38.7,30.1,22.74,NW,310,0.0,0.0,71,0.00,CLR,,0.01,WeatherDisplay:10.37,2013-03-08 00:18:00,
2013-03-07 19:24:00,38.6,30.0,22.74,West,275,0.0,0.0,71,0.00,CLR,,0.01,WeatherDisplay:10.37,2013-03-08 00:24:00,
2013-03-07 19:29:00,38.5,29.9,22.74,West,275,0.0,0.0,71,0.00,CLR,,0.01,WeatherDisplay:10.37,2013-03-08 00:29:00,
2013-03-07 19:34:00,38.4,30.2,22.74,West,275,0.0,0.0,72,0.00,CLR,,0.01,WeatherDisplay:10.37,2013-03-08 00:34:00,
2013-03-07 19:39:00,38.4,30.2,22.74,West,275,1.1,0.0,72,0.00,CLR,,0.01,WeatherDisplay:10.37,2013-03-08 00:39:00,
2013-03-07 19:44:00,38.3,30.1,22.74,West,275,0.0,0.0,72,0.00,CLR,,0.01,WeatherDisplay:10.37,2013-03-08 00:44:00,
2013-03-07 19:49:00,38.3,30.4,22.74,West,275,0.0,0.0,73,0.00,CLR,,0.01,WeatherDisplay:10.37,2013-03-08 00:49:00,
2013-03-07 19:54:00,38.2,30.3,22.74,West,275,2.3,0.0,73,0.00,CLR,,0.01,WeatherDisplay:10.37,2013-03-08 00:54:00,
2013-03-07 19:59:00,38.2,30.6,22.74,West,275,0.0,0.0,74,0.00,CLR,,0.01,WeatherDisplay:10.37,2013-03-08 00:59:00,
2013-03-07 20:05:00,38.2,30.6,22.74,West,275,0.0,0.0,74,0.00,CLR,,0.01,WeatherDisplay:10.37,2013-03-08 01:05:00,
2013-03-07 20:10:00,38.1,30.2,22.74,West,275,0.0,0.0,73,0.00,CLR,,0.01,WeatherDisplay:10.37,2013-03-08 01:10:00,
2013-03-07 20:15:00,38.1,30.5,22.74,West,275,3.5,3.5,74,0.00,CLR,,0.01,WeatherDisplay:10.37,2013-03-08 01:15:00,
2013-03-07 20:20:00,38.1,30.9,22.74,West,275,2.3,0.0,75,0.00,CLR,,0.01,WeatherDisplay:10.37,2013-03-08 01:20:00,
2013-03-07 20:25:00,38.1,30.9,22.74,West,275,0.0,0.0,75,0.00,CLR,,0.01,WeatherDisplay:10.37,2013-03-08 01:25:00,
2013-03-07 20:30:00,38.0,31.1,22.74,West,275,0.0,0.0,76,0.00,CLR,,0.01,WeatherDisplay:10.37,2013-03-08 01:30:00,
2013-03-07 20:35:00,38.0,31.1,22.74,West,275,0.0,0.0,76,0.00,CLR,,0.01,WeatherDisplay:10.37,2013-03-08 01:35:00,
2013-03-07 20:41:00,38.0,31.1,22.74,West,275,0.0,0.0,76,0.00,CLR,,0.01,WeatherDisplay:10.37,2013-03-08 01:41:00,
2013-03-07 20:46:00,38.0,31.1,31.40,West,275,2.3,2.3,76,0.00,CLR,,0.01,WeatherDisplay:10.37,2013-03-08 01:46:00,
2013-03-07 20:51:00,38.0,31.1,22.74,West,278,3.5,0.0,76,0.00,CLR,,0.01,WeatherDisplay:10.37,2013-03-08 01:51:00,
2013-03-07 20:56:00,38.0,31.4,22.74,West,278,5.0,5.0,77,0.00,CLR,,0.01,WeatherDisplay:10.37,2013-03-08 01:56:00,
2013-03-07 21:01:00,38.1,31.2,22.74,West,276,3.5,3.5,76,0.00,CLR,,0.01,WeatherDisplay:10.37,2013-03-08 02:01:00,
2013-03-07 21:06:00,38.0,31.1,22.74,WNW,284,0.0,0.0,76,0.00,CLR,,0.01,WeatherDisplay:10.37,2013-03-08 02:06:00,
2013-03-07 21:11:00,38.0,31.4,22.74,WNW,283,8.1,8.1,77,0.00,CLR,,0.01,WeatherDisplay:10.37,2013-03-08 02:11:00,
2013-03-07 21:16:00,37.9,31.7,22.74,West,272,2.0,2.0,78,0.00,CLR,,0.01,WeatherDisplay:10.37,2013-03-08 02:16:00,
2013-03-07 21:21:00,37.9,31.7,22.74,WSW,248,3.0,3.0,78,0.00,CLR,,0.01,WeatherDisplay:10.37,2013-03-08 02:21:00,
2013-03-07 21:26:00,37.7,31.8,22.74,West,271,4.6,4.6,79,0.00,CLR,,0.01,WeatherDisplay:10.37,2013-03-08 02:26:00,
2013-03-07 21:31:00,37.7,32.1,22.74,WNW,284,5.8,5.8,80,0.00,CLR,,0.01,WeatherDisplay:10.37,2013-03-08 02:31:00,
2013-03-07 21:36:00,37.5,31.9,22.74,WNW,284,0.0,0.0,80,0.00,CLR,,0.01,WeatherDisplay:10.37,2013-03-08 02:36:00,
2013-03-07 21:41:00,37.4,32.1,22.74,WNW,284,2.3,2.3,81,0.00,CLR,,0.01,WeatherDisplay:10.37,2013-03-08 02:41:00,
2013-03-07 21:46:00,37.4,31.8,22.74,West,275,3.5,3.5,80,0.00,CLR,,0.01,WeatherDisplay:10.37,2013-03-08 02:46:00,
2013-03-07 21:51:00,37.3,32.0,22.74,WNW,294,3.5,3.5,81,0.00,CLR,,0.01,WeatherDisplay:10.37,2013-03-08 02:51:00,
2013-03-07 21:56:00,37.3,32.0,22.74,WNW,302,0.0,0.0,81,0.00,CLR,,0.01,WeatherDisplay:10.37,2013-03-08 02:56:00,
2013-03-07 22:01:00,37.2,31.6,22.74,WNW,302,0.0,0.0,80,0.00,CLR,,0.01,WeatherDisplay:10.37,2013-03-08 03:01:00,
2013-03-07 22:06:00,37.2,31.9,22.74,West,279,0.0,0.0,81,0.00,CLR,,0.01,WeatherDisplay:10.37,2013-03-08 03:06:00,
2013-03-07 22:11:00,37.2,31.6,22.74,NW,319,0.0,0.0,80,0.00,CLR,,0.01,WeatherDisplay:10.37,2013-03-08 03:11:00,
2013-03-07 22:16:00,37.2,31.6,22.74,NW,318,0.0,0.0,80,0.00,CLR,,0.01,WeatherDisplay:10.37,2013-03-08 03:16:00,
2013-03-07 22:21:00,37.2,31.6,22.74,NW,319,0.0,0.0,80,0.00,CLR,,0.01,WeatherDisplay:10.37,2013-03-08 03:21:00,
2013-03-07 22:26:00,37.2,31.9,22.74,NW,319,2.0,2.0,81,0.00,CLR,,0.01,WeatherDisplay:10.37,2013-03-08 03:26:00,
2013-03-07 22:31:00,37.2,31.6,22.74,West,268,4.6,4.6,80,0.00,CLR,,0.01,WeatherDisplay:10.37,2013-03-08 03:31:00,
2013-03-07 22:36:00,37.2,31.6,22.74,West,269,0.0,0.0,80,0.00,CLR,,0.01,WeatherDisplay:10.37,2013-03-08 03:36:00,
2013-03-07 22:42:00,37.2,31.6,22.74,WNW,298,0.0,0.0,80,0.00,CLR,,0.01,WeatherDisplay:10.37,2013-03-08 03:42:00,
2013-03-07 22:47:00,37.1,31.5,22.74,NW,319,2.3,2.3,80,0.00,CLR,,0.01,WeatherDisplay:10.37,2013-03-08 03:47:00,
2013-03-07 22:52:00,37.1,31.5,22.74,NW,321,0.0,0.0,80,0.00,CLR,,0.01,WeatherDisplay:10.37,2013-03-08 03:52:00,
2013-03-07 22:57:00,37.1,31.5,22.74,NW,311,0.0,0.0,80,0.00,CLR,,0.01,WeatherDisplay:10.37,2013-03-08 03:57:00,
2013-03-07 23:02:00,37.1,31.5,22.74,NW,311,0.0,0.0,80,0.00,CLR,,0.01,WeatherDisplay:10.37,2013-03-08 04:02:00,
2013-03-07 23:08:00,37.1,31.5,22.74,NW,311,0.0,0.0,80,0.00,CLR,,0.01,WeatherDisplay:10.37,2013-03-08 04:08:00,
2013-03-07 23:13:00,37.0,31.4,22.74,NW,311,0.0,0.0,80,0.00,CLR,,0.01,WeatherDisplay:10.37,2013-03-08 04:13:00,
2013-03-07 23:18:00,37.0,31.4,22.74,NW,311,0.0,0.0,80,0.00,CLR,,0.01,WeatherDisplay:10.37,2013-03-08 04:18:00,
2013-03-07 23:23:00,37.0,31.4,22.74,NW,311,0.0,0.0,80,0.00,CLR,,0.01,WeatherDisplay:10.37,2013-03-08 04:23:00,
2013-03-07 23:28:00,37.0,31.4,22.74,NW,311,0.0,0.0,80,0.00,CLR,,0.01,WeatherDisplay:10.37,2013-03-08 04:28:00,
2013-03-07 23:33:00,36.9,31.0,22.74,NW,311,0.0,0.0,79,0.00,CLR,,0.01,WeatherDisplay:10.37,2013-03-08 04:33:00,
2013-03-07 23:38:00,36.8,30.9,22.74,NW,311,2.3,0.0,79,0.00,CLR,,0.01,WeatherDisplay:10.37,2013-03-08 04:38:00,
2013-03-07 23:43:00,36.7,30.8,22.74,NW,319,2.3,2.3,79,0.00,CLR,,0.01,WeatherDisplay:10.37,2013-03-08 04:43:00,
2013-03-07 23:48:00,36.6,30.4,22.74,WNW,292,3.5,3.5,78,0.00,CLR,,0.01,WeatherDisplay:10.37,2013-03-08 04:48:00,
2013-03-07 23:53:00,36.5,30.3,22.74,West,265,2.3,2.3,78,0.00,CLR,,0.01,WeatherDisplay:10.37,2013-03-08 04:53:00,
2013-03-07 23:58:00,36.5,30.3,22.74,West,281,3.0,3.0,78,0.00,CLR,,0.01,WeatherDisplay:10.37,2013-03-08 04:58:00,